EDDP/LEJ METAR and TAF weather

Enter ICAO airport designator
Station Type Date Time Source
EDDP METAR 2022/05/23 14:20 UTC NOAA

EDDP 231420Z 13012KT CAVOK 22/11 Q1005 NOSIG


Station Type Date Time Source
EDDP Decoded METAR 2022/05/23 14:20 UTC NOAA

Leipzig-Schkeuditz, Germany (EDDP) 51-25N 012-14E 149M
May 23, 2022 - 10:20 AM EDT / 2022.05.23 1420 UTC
Wind: from the SE (130 degrees) at 14 MPH (12 KT):0
Visibility: greater than 7 mile(s):0
Temperature: 71 F (22 C)
Dew Point: 51 F (11 C)
Relative Humidity: 49%
Pressure (altimeter): 29.68 in. Hg (1005 hPa)
ob: EDDP 231420Z 13012KT CAVOK 22/11 Q1005 NOSIG
cycle: 14

Station Type Date Time Source
EDDP TAF 2022/05/23 12:27 UTC NOAA

TAF TAF EDDP 231100Z 2312/2412 11012KT 9999 SCT030
TEMPO 2313/2315 12015G25KT
BECMG 2320/2322 18010KT PROB30
TEMPO 2320/2323 RA
BECMG 2405/2407 25015G25KT

Example: see airport list